sensor_id;sensor_type;location;lat;lon;timestamp;pressure;altitude;pressure_sealevel;temperature;humidity
40992;BME280;29633;49.168;9.848;2022-10-16T00:00:31;96723.00;;;20.69;71.43
40992;BME280;29633;49.168;9.848;2022-10-16T00:02:57;96730.44;;;20.66;71.50
40992;BME280;29633;49.168;9.848;2022-10-16T00:05:23;96725.75;;;20.61;71.46
40992;BME280;29633;49.168;9.848;2022-10-16T00:07:49;96734.19;;;20.56;71.73
40992;BME280;29633;49.168;9.848;2022-10-16T00:10:15;96733.75;;;20.53;71.99
40992;BME280;29633;49.168;9.848;2022-10-16T00:12:40;96732.94;;;20.52;71.75
40992;BME280;29633;49.168;9.848;2022-10-16T00:15:06;96731.03;;;20.46;72.04
40992;BME280;29633;49.168;9.848;2022-10-16T00:17:32;96733.41;;;20.41;71.96
40992;BME280;29633;49.168;9.848;2022-10-16T00:19:58;96736.03;;;20.41;71.72
40992;BME280;29633;49.168;9.848;2022-10-16T00:22:24;96736.03;;;20.41;71.97
40992;BME280;29633;49.168;9.848;2022-10-16T00:24:50;96732.78;;;20.39;71.77
40992;BME280;29633;49.168;9.848;2022-10-16T00:27:15;96726.06;;;20.37;72.02
40992;BME280;29633;49.168;9.848;2022-10-16T00:29:42;96727.25;;;20.34;71.94
40992;BME280;29633;49.168;9.848;2022-10-16T00:32:08;96728.69;;;20.37;71.74
40992;BME280;29633;49.168;9.848;2022-10-16T00:34:34;96735.78;;;20.36;72.02
40992;BME280;29633;49.168;9.848;2022-10-16T00:37:00;96727.91;;;20.36;71.55
40992;BME280;29633;49.168;9.848;2022-10-16T00:39:26;96730.53;;;20.36;72.02
40992;BME280;29633;49.168;9.848;2022-10-16T00:41:51;96727.06;;;20.36;71.85
40992;BME280;29633;49.168;9.848;2022-10-16T00:44:50;96719.34;;;20.34;71.99
40992;BME280;29633;49.168;9.848;2022-10-16T00:47:27;96720.72;;;20.30;72.00
40992;BME280;29633;49.168;9.848;2022-10-16T00:50:13;96725.16;;;20.30;71.91
40992;BME280;29633;49.168;9.848;2022-10-16T00:52:44;96738.31;;;20.30;72.08
40992;BME280;29633;49.168;9.848;2022-10-16T00:55:11;96732.72;;;20.33;72.18
40992;BME280;29633;49.168;9.848;2022-10-16T00:57:37;96728.25;;;20.33;72.14
40992;BME280;29633;49.168;9.848;2022-10-16T01:00:06;96739.59;;;20.34;72.13
40992;BME280;29633;49.168;9.848;2022-10-16T01:02:32;96739.88;;;20.39;72.22
40992;BME280;29633;49.168;9.848;2022-10-16T01:04:58;96748.22;;;20.42;72.15
40992;BME280;29633;49.168;9.848;2022-10-16T01:07:30;96739.31;;;20.43;71.73
40992;BME280;29633;49.168;9.848;2022-10-16T01:12:41;96745.09;;;20.53;71.76
40992;BME280;29633;49.168;9.848;2022-10-16T01:17:51;96749.63;;;20.59;71.95
40992;BME280;29633;49.168;9.848;2022-10-16T01:20:29;96746.97;;;20.59;71.98
40992;BME280;29633;49.168;9.848;2022-10-16T01:22:58;96747.97;;;20.58;72.15
40992;BME280;29633;49.168;9.848;2022-10-16T01:28:10;96746.97;;;20.59;72.05
40992;BME280;29633;49.168;9.848;2022-10-16T01:30:37;96741.72;;;20.59;71.92
40992;BME280;29633;49.168;9.848;2022-10-16T01:33:19;96748.63;;;20.60;71.85
40992;BME280;29633;49.168;9.848;2022-10-16T01:35:53;96738.63;;;20.56;71.61
40992;BME280;29633;49.168;9.848;2022-10-16T01:38:39;96743.09;;;20.55;71.77
40992;BME280;29633;49.168;9.848;2022-10-16T01:41:21;96742.47;;;20.53;71.86
40992;BME280;29633;49.168;9.848;2022-10-16T01:44:02;96751.75;;;20.49;71.97
40992;BME280;29633;49.168;9.848;2022-10-16T01:46:29;96759.81;;;20.48;71.75
40992;BME280;29633;49.168;9.848;2022-10-16T01:48:56;96760.63;;;20.48;72.01
40992;BME280;29633;49.168;9.848;2022-10-16T01:51:22;96754.19;;;20.51;71.67
40992;BME280;29633;49.168;9.848;2022-10-16T01:53:51;96755.44;;;20.55;72.03
40992;BME280;29633;49.168;9.848;2022-10-16T01:56:18;96735.84;;;20.57;71.94
40992;BME280;29633;49.168;9.848;2022-10-16T01:58:59;96722.66;;;20.57;71.77
40992;BME280;29633;49.168;9.848;2022-10-16T02:01:27;96734.19;;;20.56;71.92
40992;BME280;29633;49.168;9.848;2022-10-16T02:03:56;96734.94;;;20.50;71.85
40992;BME280;29633;49.168;9.848;2022-10-16T02:06:22;96736.31;;;20.46;71.87
40992;BME280;29633;49.168;9.848;2022-10-16T02:08:49;96745.56;;;20.42;72.22
40992;BME280;29633;49.168;9.848;2022-10-16T02:11:14;96751.22;;;20.39;72.05
40992;BME280;29633;49.168;9.848;2022-10-16T02:13:48;96751.22;;;20.39;72.07
40992;BME280;29633;49.168;9.848;2022-10-16T02:16:16;96747.56;;;20.40;71.89
40992;BME280;29633;49.168;9.848;2022-10-16T02:18:42;96748.97;;;20.36;72.05
40992;BME280;29633;49.168;9.848;2022-10-16T02:23:57;96748.69;;;20.31;72.32
40992;BME280;29633;49.168;9.848;2022-10-16T02:26:33;96750.03;;;20.27;72.16
40992;BME280;29633;49.168;9.848;2022-10-16T02:29:04;96751.22;;;20.25;72.33
40992;BME280;29633;49.168;9.848;2022-10-16T02:31:34;96752.84;;;20.26;72.21
40992;BME280;29633;49.168;9.848;2022-10-16T02:34:01;96746.78;;;20.25;72.30
40992;BME280;29633;49.168;9.848;2022-10-16T02:36:30;96744.31;;;20.24;72.30
40992;BME280;29633;49.168;9.848;2022-10-16T02:38:57;96747.59;;;20.26;72.04
40992;BME280;29633;49.168;9.848;2022-10-16T02:41:25;96744.75;;;20.27;72.05
40992;BME280;29633;49.168;9.848;2022-10-16T02:43:51;96745.44;;;20.29;71.95
40992;BME280;29633;49.168;9.848;2022-10-16T02:46:17;96754.13;;;20.30;71.99
40992;BME280;29633;49.168;9.848;2022-10-16T02:48:43;96750.94;;;20.34;72.28
40992;BME280;29633;49.168;9.848;2022-10-16T02:51:09;96757.03;;;20.35;72.27
40992;BME280;29633;49.168;9.848;2022-10-16T02:53:35;96754.22;;;20.36;72.05
40992;BME280;29633;49.168;9.848;2022-10-16T02:56:01;96750.94;;;20.34;72.40
40992;BME280;29633;49.168;9.848;2022-10-16T02:58:27;96756.22;;;20.34;72.13
40992;BME280;29633;49.168;9.848;2022-10-16T03:00:52;96759.03;;;20.33;72.20
40992;BME280;29633;49.168;9.848;2022-10-16T03:03:18;96762.22;;;20.28;71.97
40992;BME280;29633;49.168;9.848;2022-10-16T03:05:44;96759.28;;;20.23;72.32
40992;BME280;29633;49.168;9.848;2022-10-16T03:08:12;96758.84;;;20.20;72.17
40992;BME280;29633;49.168;9.848;2022-10-16T03:10:37;96755.56;;;20.18;71.96
40992;BME280;29633;49.168;9.848;2022-10-16T03:13:03;96756.19;;;20.20;72.39
40992;BME280;29633;49.168;9.848;2022-10-16T03:15:29;96755.38;;;20.19;72.21
40992;BME280;29633;49.168;9.848;2022-10-16T03:17:57;96757.19;;;20.19;72.09
40992;BME280;29633;49.168;9.848;2022-10-16T03:20:24;96755.38;;;20.19;72.11
40992;BME280;29633;49.168;9.848;2022-10-16T03:22:49;96762.91;;;20.22;72.46
40992;BME280;29633;49.168;9.848;2022-10-16T03:25:15;96761.09;;;20.23;72.19
40992;BME280;29633;49.168;9.848;2022-10-16T03:27:41;96757.63;;;20.22;72.08
40992;BME280;29633;49.168;9.848;2022-10-16T03:30:07;96754.38;;;20.20;72.10
40992;BME280;29633;49.168;9.848;2022-10-16T03:32:33;96753.75;;;20.18;72.29
40992;BME280;29633;49.168;9.848;2022-10-16T03:34:58;96756.41;;;20.18;72.14
40992;BME280;29633;49.168;9.848;2022-10-16T03:37:24;96754.75;;;20.17;72.17
40992;BME280;29633;49.168;9.848;2022-10-16T03:39:50;96759.38;;;20.15;72.35
40992;BME280;29633;49.168;9.848;2022-10-16T03:42:15;96768.28;;;20.14;72.05
40992;BME280;29633;49.168;9.848;2022-10-16T03:44:41;96750.03;;;20.12;72.37
40992;BME280;29633;49.168;9.848;2022-10-16T03:47:06;96745.13;;;20.09;71.95
40992;BME280;29633;49.168;9.848;2022-10-16T03:49:32;96744.31;;;20.09;72.25
40992;BME280;29633;49.168;9.848;2022-10-16T03:51:58;96754.84;;;20.09;72.27
40992;BME280;29633;49.168;9.848;2022-10-16T03:54:23;96752.22;;;20.09;72.43
40992;BME280;29633;49.168;9.848;2022-10-16T03:56:49;96754.22;;;20.07;72.12
40992;BME280;29633;49.168;9.848;2022-10-16T03:59:15;96755.22;;;20.06;72.20
40992;BME280;29633;49.168;9.848;2022-10-16T04:01:40;96761.66;;;20.03;72.20
40992;BME280;29633;49.168;9.848;2022-10-16T04:04:06;96768.09;;;20.01;72.40
40992;BME280;29633;49.168;9.848;2022-10-16T04:06:31;96766.47;;;20.00;72.16
40992;BME280;29633;49.168;9.848;2022-10-16T04:08:57;96769.72;;;20.02;72.04
40992;BME280;29633;49.168;9.848;2022-10-16T04:11:23;96765.91;;;20.04;72.57
40992;BME280;29633;49.168;9.848;2022-10-16T04:13:48;96770.84;;;20.07;72.50
40992;BME280;29633;49.168;9.848;2022-10-16T04:16:14;96766.19;;;20.09;72.46
40992;BME280;29633;49.168;9.848;2022-10-16T04:18:40;96766.38;;;20.08;72.15
40992;BME280;29633;49.168;9.848;2022-10-16T04:21:06;96772.66;;;20.07;72.48
40992;BME280;29633;49.168;9.848;2022-10-16T04:23:31;96761.91;;;20.08;72.32
40992;BME280;29633;49.168;9.848;2022-10-16T04:25:57;96769.00;;;20.08;72.31
40992;BME280;29633;49.168;9.848;2022-10-16T04:28:23;96773.72;;;20.12;72.06
40992;BME280;29633;49.168;9.848;2022-10-16T04:30:49;96772.53;;;20.15;72.40
40992;BME280;29633;49.168;9.848;2022-10-16T04:33:14;96772.38;;;20.17;72.43
40992;BME280;29633;49.168;9.848;2022-10-16T04:35:40;96772.81;;;20.20;72.15
40992;BME280;29633;49.168;9.848;2022-10-16T04:38:06;96776.25;;;20.21;72.41
40992;BME280;29633;49.168;9.848;2022-10-16T04:40:31;96784.34;;;20.19;72.12
40992;BME280;29633;49.168;9.848;2022-10-16T04:42:59;96788.97;;;20.17;72.39
40992;BME280;29633;49.168;9.848;2022-10-16T04:45:24;96795.59;;;20.13;71.98
40992;BME280;29633;49.168;9.848;2022-10-16T04:47:50;96795.31;;;20.08;72.09
40992;BME280;29633;49.168;9.848;2022-10-16T04:50:16;96801.16;;;20.03;72.48
40992;BME280;29633;49.168;9.848;2022-10-16T04:52:41;96796.41;;;19.99;72.45
40992;BME280;29633;49.168;9.848;2022-10-16T04:55:07;96795.75;;;19.97;72.44
40992;BME280;29633;49.168;9.848;2022-10-16T04:57:33;96805.03;;;19.93;72.43
40992;BME280;29633;49.168;9.848;2022-10-16T04:59:59;96813.94;;;19.92;72.35
40992;BME280;29633;49.168;9.848;2022-10-16T05:02:25;96815.13;;;19.89;72.09
40992;BME280;29633;49.168;9.848;2022-10-16T05:04:51;96818.06;;;19.86;72.09
40992;BME280;29633;49.168;9.848;2022-10-16T05:07:17;96812.19;;;19.84;72.34
40992;BME280;29633;49.168;9.848;2022-10-16T05:09:42;96817.81;;;19.81;72.22
40992;BME280;29633;49.168;9.848;2022-10-16T05:12:08;96813.19;;;19.83;72.34
40992;BME280;29633;49.168;9.848;2022-10-16T05:14:34;96816.63;;;19.84;72.26
40992;BME280;29633;49.168;9.848;2022-10-16T05:17:00;96813.19;;;19.83;72.05
40992;BME280;29633;49.168;9.848;2022-10-16T05:19:26;96813.38;;;19.82;72.40
40992;BME280;29633;49.168;9.848;2022-10-16T05:21:51;96821.28;;;19.82;72.50
40992;BME280;29633;49.168;9.848;2022-10-16T05:24:17;96821.28;;;19.82;72.21
40992;BME280;29633;49.168;9.848;2022-10-16T05:26:43;96820.25;;;19.83;72.12
40992;BME280;29633;49.168;9.848;2022-10-16T05:29:08;96824.53;;;19.84;72.13
40992;BME280;29633;49.168;9.848;2022-10-16T05:31:34;96828.44;;;19.88;72.05
40992;BME280;29633;49.168;9.848;2022-10-16T05:34:00;96833.88;;;19.86;72.43
40992;BME280;29633;49.168;9.848;2022-10-16T05:36:26;96834.88;;;19.85;72.42
40992;BME280;29633;49.168;9.848;2022-10-16T05:38:52;96827.97;;;19.84;72.49
40992;BME280;29633;49.168;9.848;2022-10-16T05:41:17;96825.81;;;19.88;72.41
40992;BME280;29633;49.168;9.848;2022-10-16T05:43:47;96827.44;;;19.89;72.12
40992;BME280;29633;49.168;9.848;2022-10-16T05:46:13;96829.63;;;19.85;72.11
40992;BME280;29633;49.168;9.848;2022-10-16T05:48:39;96823.91;;;19.82;72.22
40992;BME280;29633;49.168;9.848;2022-10-16T05:51:06;96817.00;;;19.81;72.30
40992;BME280;29633;49.168;9.848;2022-10-16T05:53:34;96819.47;;;19.82;72.35
40992;BME280;29633;49.168;9.848;2022-10-16T05:56:00;96822.88;;;19.83;72.23
40992;BME280;29633;49.168;9.848;2022-10-16T05:58:30;96821.06;;;19.83;72.10
40992;BME280;29633;49.168;9.848;2022-10-16T06:01:05;96832.41;;;19.84;72.84
40992;BME280;29633;49.168;9.848;2022-10-16T06:03:33;96838.97;;;19.88;72.50
40992;BME280;29633;49.168;9.848;2022-10-16T06:05:58;96836.94;;;19.90;72.40
40992;BME280;29633;49.168;9.848;2022-10-16T06:08:24;96835.78;;;19.92;72.28
40992;BME280;29633;49.168;9.848;2022-10-16T06:11:07;96837.06;;;19.96;72.12
40992;BME280;29633;49.168;9.848;2022-10-16T06:13:33;96840.16;;;20.00;72.36
40992;BME280;29633;49.168;9.848;2022-10-16T06:15:59;96837.53;;;20.00;72.32
40992;BME280;29633;49.168;9.848;2022-10-16T06:18:26;96848.84;;;20.00;72.32
40992;BME280;29633;49.168;9.848;2022-10-16T06:20:53;96850.50;;;20.01;72.25
40992;BME280;29633;49.168;9.848;2022-10-16T06:23:18;96852.13;;;20.02;71.99
40992;BME280;29633;49.168;9.848;2022-10-16T06:25:44;96852.59;;;20.06;72.22
40992;BME280;29633;49.168;9.848;2022-10-16T06:28:09;96855.50;;;20.11;72.42
40992;BME280;29633;49.168;9.848;2022-10-16T06:30:35;96860.41;;;20.14;72.21
40992;BME280;29633;49.168;9.848;2022-10-16T06:33:01;96861.69;;;20.18;72.18
40992;BME280;29633;49.168;9.848;2022-10-16T06:35:26;96869.84;;;20.23;72.15
40992;BME280;29633;49.168;9.848;2022-10-16T06:37:53;96873.94;;;20.26;71.94
40992;BME280;29633;49.168;9.848;2022-10-16T06:40:18;96869.97;;;20.30;71.91
40992;BME280;29633;49.168;9.848;2022-10-16T06:42:44;96878.16;;;20.35;71.96
40992;BME280;29633;49.168;9.848;2022-10-16T06:45:10;96874.31;;;20.37;72.29
40992;BME280;29633;49.168;9.848;2022-10-16T06:47:36;96881.84;;;20.40;71.91
40992;BME280;29633;49.168;9.848;2022-10-16T06:50:03;96884.69;;;20.39;71.85
40992;BME280;29633;49.168;9.848;2022-10-16T06:52:29;96883.50;;;20.41;71.97
40992;BME280;29633;49.168;9.848;2022-10-16T06:54:54;96883.03;;;20.38;72.29
40992;BME280;29633;49.168;9.848;2022-10-16T06:57:20;96878.16;;;20.35;71.96
40992;BME280;29633;49.168;9.848;2022-10-16T06:59:46;96874.06;;;20.32;72.34
40992;BME280;29633;49.168;9.848;2022-10-16T07:02:11;96881.16;;;20.32;71.99
40992;BME280;29633;49.168;9.848;2022-10-16T07:04:37;96873.25;;;20.32;72.27
40992;BME280;29633;49.168;9.848;2022-10-16T07:07:03;96880.50;;;20.30;72.06
40992;BME280;29633;49.168;9.848;2022-10-16T07:09:28;96878.06;;;20.28;72.21
40992;BME280;29633;49.168;9.848;2022-10-16T07:11:54;96887.28;;;20.24;72.14
40992;BME280;29633;49.168;9.848;2022-10-16T07:14:21;96896.53;;;20.20;72.40
40992;BME280;29633;49.168;9.848;2022-10-16T07:16:47;96901.97;;;20.19;72.11
40992;BME280;29633;49.168;9.848;2022-10-16T07:19:14;96905.78;;;20.16;72.63
40992;BME280;29633;49.168;9.848;2022-10-16T07:21:40;96913.88;;;20.14;72.48
40992;BME280;29633;49.168;9.848;2022-10-16T07:24:14;96914.88;;;20.13;72.28
40992;BME280;29633;49.168;9.848;2022-10-16T07:26:41;96918.94;;;20.16;72.31
40992;BME280;29633;49.168;9.848;2022-10-16T07:29:16;96917.59;;;20.20;72.36
40992;BME280;29633;49.168;9.848;2022-10-16T07:31:42;96924.50;;;20.21;72.35
40992;BME280;29633;49.168;9.848;2022-10-16T07:34:09;96931.38;;;20.22;72.49
40992;BME280;29633;49.168;9.848;2022-10-16T07:36:35;96936.66;;;20.22;72.29
40992;BME280;29633;49.168;9.848;2022-10-16T07:39:00;96936.31;;;20.25;72.23
40992;BME280;29633;49.168;9.848;2022-10-16T07:41:26;96944.84;;;20.27;72.27
40992;BME280;29633;49.168;9.848;2022-10-16T07:43:53;96945.31;;;20.31;72.31
40992;BME280;29633;49.168;9.848;2022-10-16T07:46:21;96955.03;;;20.30;72.16
40992;BME280;29633;49.168;9.848;2022-10-16T07:48:47;96956.50;;;20.33;72.16
40992;BME280;29633;49.168;9.848;2022-10-16T07:51:18;96950.88;;;20.36;72.17
40992;BME280;29633;49.168;9.848;2022-10-16T07:53:45;96946.06;;;20.39;72.39
40992;BME280;29633;49.168;9.848;2022-10-16T07:56:12;96949.78;;;20.45;72.08
40992;BME280;29633;49.168;9.848;2022-10-16T07:58:38;96955.16;;;20.51;72.09
40992;BME280;29633;49.168;9.848;2022-10-16T08:01:05;96951.53;;;20.52;72.28
40992;BME280;29633;49.168;9.848;2022-10-16T08:03:31;96951.16;;;20.55;72.43
40992;BME280;29633;49.168;9.848;2022-10-16T08:06:00;96952.44;;;20.59;72.31
40992;BME280;29633;49.168;9.848;2022-10-16T08:08:27;96953.25;;;20.60;72.24
40992;BME280;29633;49.168;9.848;2022-10-16T08:10:53;96955.72;;;20.61;72.20
40992;BME280;29633;49.168;9.848;2022-10-16T08:13:18;96962.59;;;20.62;71.86
40992;BME280;29633;49.168;9.848;2022-10-16T08:15:44;96966.88;;;20.63;71.96
40992;BME280;29633;49.168;9.848;2022-10-16T08:18:12;96976.44;;;20.65;72.40
40992;BME280;29633;49.168;9.848;2022-10-16T08:20:38;96984.34;;;20.65;72.10
40992;BME280;29633;49.168;9.848;2022-10-16T08:23:04;96985.50;;;20.62;72.37
40992;BME280;29633;49.168;9.848;2022-10-16T08:25:30;96984.69;;;20.61;71.88
40992;BME280;29633;49.168;9.848;2022-10-16T08:27:55;96981.41;;;20.59;72.10
40992;BME280;29633;49.168;9.848;2022-10-16T08:30:22;96986.31;;;20.62;72.15
40992;BME280;29633;49.168;9.848;2022-10-16T08:32:49;96985.31;;;20.63;72.38
40992;BME280;29633;49.168;9.848;2022-10-16T08:35:15;96971.16;;;20.65;72.10
40992;BME280;29633;49.168;9.848;2022-10-16T08:37:41;96972.59;;;20.67;72.40
40992;BME280;29633;49.168;9.848;2022-10-16T08:40:18;96971.41;;;20.70;72.04
40992;BME280;29633;49.168;9.848;2022-10-16T08:42:53;96972.69;;;20.74;72.12
40992;BME280;29633;49.168;9.848;2022-10-16T08:51:07;96975.53;;;20.87;71.83
40992;BME280;29633;49.168;9.848;2022-10-16T08:53:38;96985.34;;;20.93;72.10
40992;BME280;29633;49.168;9.848;2022-10-16T08:56:07;96982.97;;;20.98;71.64
40992;BME280;29633;49.168;9.848;2022-10-16T08:58:33;96984.88;;;21.04;72.05
40992;BME280;29633;49.168;9.848;2022-10-16T09:01:01;96992.91;;;21.10;71.94
40992;BME280;29633;49.168;9.848;2022-10-16T09:06:26;96991.59;;;21.21;71.93
40992;BME280;29633;49.168;9.848;2022-10-16T09:09:11;96994.16;;;21.29;72.16
40992;BME280;29633;49.168;9.848;2022-10-16T09:12:09;96993.47;;;21.42;71.84
40992;BME280;29633;49.168;9.848;2022-10-16T09:17:48;97007.69;;;21.77;71.75
40992;BME280;29633;49.168;9.848;2022-10-16T09:20:19;97006.34;;;22.02;71.48
40992;BME280;29633;49.168;9.848;2022-10-16T09:25:35;97003.03;;;22.21;71.18
40992;BME280;29633;49.168;9.848;2022-10-16T09:28:00;97007.31;;;22.22;71.48
40992;BME280;29633;49.168;9.848;2022-10-16T09:30:27;97013.44;;;22.23;71.74
40992;BME280;29633;49.168;9.848;2022-10-16T09:32:54;97016.69;;;22.25;71.61
40992;BME280;29633;49.168;9.848;2022-10-16T09:35:31;97009.84;;;22.30;71.74
40992;BME280;29633;49.168;9.848;2022-10-16T09:37:58;97008.25;;;22.36;71.82
40992;BME280;29633;49.168;9.848;2022-10-16T09:45:29;97019.75;;;22.49;71.60
40992;BME280;29633;49.168;9.848;2022-10-16T09:47:54;97021.75;;;22.47;71.68
40992;BME280;29633;49.168;9.848;2022-10-16T09:50:27;97018.72;;;22.50;71.72
40992;BME280;29633;49.168;9.848;2022-10-16T09:53:26;97035.22;;;22.52;71.80
40992;BME280;29633;49.168;9.848;2022-10-16T09:56:02;97030.16;;;22.57;71.66
40992;BME280;29633;49.168;9.848;2022-10-16T09:58:31;97036.69;;;22.62;72.08
40992;BME280;29633;49.168;9.848;2022-10-16T10:00:58;97030.25;;;22.64;72.12
40992;BME280;29633;49.168;9.848;2022-10-16T10:05:59;97031.66;;;22.88;71.72
40992;BME280;29633;49.168;9.848;2022-10-16T10:08:26;97045.59;;;23.10;71.53
40992;BME280;29633;49.168;9.848;2022-10-16T10:10:52;97036.16;;;23.28;71.51
40992;BME280;29633;49.168;9.848;2022-10-16T10:13:21;97040.75;;;23.47;71.26
40992;BME280;29633;49.168;9.848;2022-10-16T10:15:47;97046.50;;;23.64;71.63
40992;BME280;29633;49.168;9.848;2022-10-16T10:18:18;97050.00;;;23.78;71.45
40992;BME280;29633;49.168;9.848;2022-10-16T10:20:45;97050.69;;;23.93;71.07
40992;BME280;29633;49.168;9.848;2022-10-16T10:23:22;97053.97;;;24.08;71.36
40992;BME280;29633;49.168;9.848;2022-10-16T10:29:04;97057.31;;;24.36;71.30
40992;BME280;29633;49.168;9.848;2022-10-16T10:34:44;97062.00;;;24.61;71.34
40992;BME280;29633;49.168;9.848;2022-10-16T10:39:52;97058.13;;;24.83;71.23
40992;BME280;29633;49.168;9.848;2022-10-16T10:45:14;97056.50;;;25.02;71.42
40992;BME280;29633;49.168;9.848;2022-10-16T10:59:28;97061.91;;;25.53;70.81
40992;BME280;29633;49.168;9.848;2022-10-16T11:02:15;97053.47;;;25.69;70.63
40992;BME280;29633;49.168;9.848;2022-10-16T11:10:50;97054.53;;;25.99;70.57
40992;BME280;29633;49.168;9.848;2022-10-16T11:15:48;97056.53;;;26.10;70.32
40992;BME280;29633;49.168;9.848;2022-10-16T11:18:24;97058.75;;;26.13;70.37
40992;BME280;29633;49.168;9.848;2022-10-16T11:20:54;97058.16;;;26.18;70.44
40992;BME280;29633;49.168;9.848;2022-10-16T11:25:57;97048.69;;;26.28;70.23
40992;BME280;29633;49.168;9.848;2022-10-16T11:28:31;97057.22;;;26.30;70.03
40992;BME280;29633;49.168;9.848;2022-10-16T11:31:28;97046.59;;;26.30;69.95
40992;BME280;29633;49.168;9.848;2022-10-16T11:36:56;97053.75;;;26.30;69.95
40992;BME280;29633;49.168;9.848;2022-10-16T11:39:29;97052.78;;;26.24;69.86
40992;BME280;29633;49.168;9.848;2022-10-16T11:44:54;97049.94;;;26.26;69.76
40992;BME280;29633;49.168;9.848;2022-10-16T11:47:34;97051.53;;;26.27;69.75
40992;BME280;29633;49.168;9.848;2022-10-16T11:50:12;97056.41;;;26.36;69.62
40992;BME280;29633;49.168;9.848;2022-10-16T11:52:52;97048.09;;;26.51;69.46
40992;BME280;29633;49.168;9.848;2022-10-16T11:55:39;97052.50;;;26.64;69.32
40992;BME280;29633;49.168;9.848;2022-10-16T11:58:12;97054.06;;;26.71;69.44
40992;BME280;29633;49.168;9.848;2022-10-16T12:00:51;97052.59;;;26.75;69.19
40992;BME280;29633;49.168;9.848;2022-10-16T12:06:29;97041.00;;;26.95;69.00
40992;BME280;29633;49.168;9.848;2022-10-16T12:08:59;97040.69;;;27.03;69.00
40992;BME280;29633;49.168;9.848;2022-10-16T12:17:01;97047.09;;;27.20;68.99
40992;BME280;29633;49.168;9.848;2022-10-16T12:19:29;97042.34;;;27.22;68.93
40992;BME280;29633;49.168;9.848;2022-10-16T12:21:56;97038.88;;;27.21;68.95
40992;BME280;29633;49.168;9.848;2022-10-16T12:24:39;97053.38;;;27.25;69.12
40992;BME280;29633;49.168;9.848;2022-10-16T12:27:23;97056.31;;;27.35;69.50
40992;BME280;29633;49.168;9.848;2022-10-16T12:29:53;97056.00;;;27.50;69.74
40992;BME280;29633;49.168;9.848;2022-10-16T12:32:28;97053.09;;;27.70;70.12
40992;BME280;29633;49.168;9.848;2022-10-16T12:34:54;97049.69;;;27.81;70.95
40992;BME280;29633;49.168;9.848;2022-10-16T12:37:22;97049.75;;;28.04;71.11
40992;BME280;29633;49.168;9.848;2022-10-16T12:39:49;97060.47;;;28.46;70.84
40992;BME280;29633;49.168;9.848;2022-10-16T12:44:54;97052.41;;;29.45;69.56
40992;BME280;29633;49.168;9.848;2022-10-16T12:47:35;97046.50;;;29.95;69.02
40992;BME280;29633;49.168;9.848;2022-10-16T12:50:03;97052.19;;;30.43;69.03
40992;BME280;29633;49.168;9.848;2022-10-16T12:52:38;97051.59;;;31.03;68.11
40992;BME280;29633;49.168;9.848;2022-10-16T12:55:05;97056.94;;;31.41;68.00
40992;BME280;29633;49.168;9.848;2022-10-16T13:00:25;97059.97;;;32.10;67.51
40992;BME280;29633;49.168;9.848;2022-10-16T13:03:21;97050.84;;;32.38;66.68
40992;BME280;29633;49.168;9.848;2022-10-16T13:28:12;97065.88;;;32.97;69.28
40992;BME280;29633;49.168;9.848;2022-10-16T13:35:35;97069.59;;;32.91;69.14
40992;BME280;29633;49.168;9.848;2022-10-16T13:40:36;97072.19;;;32.54;68.32
40992;BME280;29633;49.168;9.848;2022-10-16T13:43:01;97070.09;;;32.30;67.87
40992;BME280;29633;49.168;9.848;2022-10-16T13:45:27;97075.25;;;32.09;67.07
40992;BME280;29633;49.168;9.848;2022-10-16T13:48:04;97072.03;;;31.91;66.48
40992;BME280;29633;49.168;9.848;2022-10-16T13:50:30;97072.88;;;31.69;65.92
40992;BME280;29633;49.168;9.848;2022-10-16T13:53:14;97073.91;;;31.47;66.02
40992;BME280;29633;49.168;9.848;2022-10-16T13:55:40;97076.28;;;31.27;65.57
40992;BME280;29633;49.168;9.848;2022-10-16T13:58:13;97082.00;;;31.13;65.17
40992;BME280;29633;49.168;9.848;2022-10-16T14:00:39;97082.81;;;30.97;65.01
40992;BME280;29633;49.168;9.848;2022-10-16T14:03:11;97077.44;;;30.81;64.23
40992;BME280;29633;49.168;9.848;2022-10-16T14:05:47;97076.38;;;30.65;64.01
40992;BME280;29633;49.168;9.848;2022-10-16T14:08:13;97074.84;;;30.52;64.22
40992;BME280;29633;49.168;9.848;2022-10-16T14:10:39;97079.25;;;30.30;63.70
40992;BME280;29633;49.168;9.848;2022-10-16T14:13:05;97085.84;;;30.11;63.77
40992;BME280;29633;49.168;9.848;2022-10-16T14:15:33;97089.75;;;29.92;63.85
40992;BME280;29633;49.168;9.848;2022-10-16T14:18:00;97079.75;;;29.75;64.10
40992;BME280;29633;49.168;9.848;2022-10-16T14:20:29;97081.31;;;29.60;63.98
40992;BME280;29633;49.168;9.848;2022-10-16T14:23:29;97090.63;;;29.46;63.96
40992;BME280;29633;49.168;9.848;2022-10-16T14:28:39;97085.41;;;29.27;63.61
40992;BME280;29633;49.168;9.848;2022-10-16T14:31:33;97075.28;;;29.06;63.63
40992;BME280;29633;49.168;9.848;2022-10-16T14:34:01;97071.69;;;28.89;63.86
40992;BME280;29633;49.168;9.848;2022-10-16T14:36:27;97086.78;;;28.72;63.96
40992;BME280;29633;49.168;9.848;2022-10-16T14:39:13;97076.38;;;28.52;63.81
40992;BME280;29633;49.168;9.848;2022-10-16T14:41:45;97084.22;;;28.35;64.10
40992;BME280;29633;49.168;9.848;2022-10-16T14:44:12;97078.59;;;28.25;64.13
40992;BME280;29633;49.168;9.848;2022-10-16T14:46:39;97081.63;;;28.17;64.08
40992;BME280;29633;49.168;9.848;2022-10-16T14:49:17;97089.31;;;28.07;63.96
40992;BME280;29633;49.168;9.848;2022-10-16T14:51:45;97099.81;;;28.02;64.04
40992;BME280;29633;49.168;9.848;2022-10-16T14:54:16;97097.38;;;28.01;63.97
40992;BME280;29633;49.168;9.848;2022-10-16T14:56:50;97083.19;;;27.88;64.00
40992;BME280;29633;49.168;9.848;2022-10-16T14:59:26;97086.47;;;27.72;64.23
40992;BME280;29633;49.168;9.848;2022-10-16T15:01:53;97089.75;;;27.56;64.29
40992;BME280;29633;49.168;9.848;2022-10-16T15:04:19;97084.09;;;27.46;64.48
40992;BME280;29633;49.168;9.848;2022-10-16T15:06:44;97093.16;;;27.38;64.11
40992;BME280;29633;49.168;9.848;2022-10-16T15:09:10;97093.84;;;27.34;64.31